Terminal Aerodrome Forecast
Issued by NWS Mobile, AL

Home | Current Version | Previous Version | Text Only | Print | Product List | Glossary On
Versions: 1 2 3 4 5 6 7 8 9 10 11 12 13 14 15 16 17 18 19 20
000
FTUS44 KMOB 292300
TAFPNS
TAF
KPNS 292326Z 3000/3024 20009KT P6SM SCT250
     FM300800 32007KT P6SM BKN025 OVC250
     FM301200 35012KT P6SM SCT030 BKN120
     FM301500 36015G20KT P6SM FEW250=

USA.gov is the U.S. government's official web portal to all federal, state and local government web resources and services.